createdAt,value
2018-12-12T00:02:06.270Z,43.80
2018-12-12T00:04:33.928Z,44.97
2018-12-12T00:07:01.751Z,42.00
2018-12-12T00:09:29.451Z,44.97
2018-12-12T00:11:57.159Z,44.63
2018-12-12T00:14:24.787Z,42.00
2018-12-12T00:16:52.461Z,44.30
2018-12-12T00:19:20.103Z,43.47
2018-12-12T00:21:47.821Z,41.67
2018-12-12T00:24:15.587Z,41.37
2018-12-12T00:26:43.265Z,37.13
2018-12-12T00:29:10.933Z,39.50
2018-12-12T00:31:38.603Z,40.63
2018-12-12T00:34:06.267Z,38.93
2018-12-12T00:36:33.946Z,38.67
2018-12-12T00:39:01.665Z,40.47
2018-12-12T00:41:29.343Z,40.07
2018-12-12T00:43:56.996Z,38.47
2018-12-12T00:46:24.705Z,38.77
2018-12-12T00:48:52.533Z,39.63
2018-12-12T00:51:20.182Z,37.43
2018-12-12T00:53:47.858Z,37.97
2018-12-12T00:56:15.525Z,37.63
2018-12-12T00:58:43.269Z,38.07
2018-12-12T01:01:10.973Z,36.60
2018-12-12T01:03:38.626Z,39.07
2018-12-12T01:06:06.285Z,38.37
2018-12-12T01:08:33.969Z,36.67
2018-12-12T01:11:07.241Z,37.60
2018-12-12T01:13:34.947Z,38.53
2018-12-12T01:16:03.749Z,38.17
2018-12-12T01:18:31.403Z,36.23
2018-12-12T01:20:59.077Z,36.53
2018-12-12T01:23:26.729Z,37.63
2018-12-12T01:26:01.165Z,36.57
2018-12-12T01:28:29.182Z,35.73
2018-12-12T01:30:56.837Z,35.43
2018-12-12T01:33:24.529Z,36.23
2018-12-12T01:35:52.202Z,35.57
2018-12-12T01:38:19.907Z,34.90
2018-12-12T01:40:47.623Z,35.23
2018-12-12T01:43:15.270Z,34.80
2018-12-12T01:45:42.927Z,31.60
2018-12-12T01:48:10.767Z,33.43
2018-12-12T01:50:38.447Z,35.37
2018-12-12T01:53:06.185Z,33.77
2018-12-12T01:55:33.890Z,34.63
2018-12-12T01:58:01.649Z,33.47
2018-12-12T02:00:29.383Z,33.60
2018-12-12T02:02:57.094Z,32.53
2018-12-12T02:05:24.791Z,32.73
2018-12-12T02:07:52.464Z,35.43
2018-12-12T02:10:20.160Z,36.43
2018-12-12T02:12:59.087Z,34.40
2018-12-12T02:15:26.835Z,34.07
2018-12-12T02:17:54.503Z,35.80
2018-12-12T02:20:22.167Z,32.90
2018-12-12T02:22:49.904Z,32.97
2018-12-12T02:25:17.595Z,33.83
2018-12-12T02:27:45.262Z,34.40
2018-12-12T02:30:12.972Z,33.20
2018-12-12T02:32:40.635Z,35.63
2018-12-12T02:35:08.286Z,35.40
2018-12-12T02:37:36.017Z,35.03
2018-12-12T02:40:04.256Z,33.93
2018-12-12T02:42:31.925Z,34.47
2018-12-12T02:44:59.733Z,36.20
2018-12-12T02:47:27.477Z,33.13
2018-12-12T02:49:55.160Z,34.10
2018-12-12T02:52:22.831Z,34.60
2018-12-12T02:54:50.495Z,34.43
2018-12-12T02:57:18.138Z,35.13
2018-12-12T02:59:45.877Z,36.57
2018-12-12T03:02:13.552Z,34.63
2018-12-12T03:04:41.214Z,37.73
2018-12-12T03:07:08.905Z,35.03
2018-12-12T03:09:36.604Z,33.27
2018-12-12T03:12:04.335Z,32.73
2018-12-12T03:14:32.046Z,34.37
2018-12-12T03:16:59.690Z,35.20
2018-12-12T03:19:27.347Z,33.20
2018-12-12T03:21:55.095Z,33.93
2018-12-12T03:24:22.745Z,33.53
2018-12-12T03:26:50.462Z,32.17
2018-12-12T03:29:18.298Z,34.23
2018-12-12T03:31:45.943Z,33.00
2018-12-12T03:34:13.598Z,32.40
2018-12-12T03:36:41.351Z,31.10
2018-12-12T03:39:09.257Z,33.20
2018-12-12T03:41:36.902Z,31.97
2018-12-12T03:44:04.623Z,32.13
2018-12-12T03:46:32.267Z,32.17
2018-12-12T03:48:59.896Z,32.13
2018-12-12T03:51:27.663Z,32.50
2018-12-12T03:53:55.329Z,32.20
2018-12-12T03:56:22.989Z,34.97
2018-12-12T03:58:50.747Z,35.83
2018-12-12T04:01:18.407Z,35.10
2018-12-12T04:03:46.063Z,29.57
2018-12-12T04:06:13.742Z,32.03
2018-12-12T04:08:41.425Z,32.57
2018-12-12T04:11:09.109Z,32.47
2018-12-12T04:13:36.831Z,32.90
2018-12-12T04:16:04.512Z,36.67
2018-12-12T04:18:32.312Z,33.47
2018-12-12T04:20:59.994Z,35.87
2018-12-12T04:23:27.682Z,33.40
2018-12-12T04:25:55.349Z,32.57
2018-12-12T04:28:23.059Z,31.27
2018-12-12T04:30:50.806Z,33.07
2018-12-12T04:33:18.466Z,32.00
2018-12-12T04:35:46.137Z,32.90
2018-12-12T04:38:13.799Z,31.43
2018-12-12T04:40:41.479Z,32.00
2018-12-12T04:43:09.184Z,31.30
2018-12-12T04:45:36.833Z,25.47
2018-12-12T04:48:04.512Z,28.33
2018-12-12T04:50:32.218Z,29.70
2018-12-12T04:52:59.876Z,31.13
2018-12-12T04:55:27.548Z,30.97
2018-12-12T04:57:55.216Z,31.23
2018-12-12T05:00:22.964Z,30.83
2018-12-12T05:02:51.080Z,31.73
2018-12-12T05:05:18.806Z,30.93
2018-12-12T05:07:46.516Z,30.37
2018-12-12T05:10:14.204Z,31.83
2018-12-12T05:12:41.931Z,26.43
2018-12-12T05:15:09.748Z,28.07
2018-12-12T05:17:37.408Z,30.07
2018-12-12T05:20:05.501Z,30.43
2018-12-12T05:22:33.180Z,30.00
2018-12-12T05:25:00.844Z,27.53
2018-12-12T05:27:28.544Z,26.40
2018-12-12T05:29:56.230Z,24.77
2018-12-12T05:32:24.001Z,28.70
2018-12-12T05:34:51.712Z,28.70
2018-12-12T05:37:19.476Z,28.60
2018-12-12T05:39:47.124Z,27.53
2018-12-12T05:42:14.840Z,26.23
2018-12-12T05:44:42.503Z,29.13
2018-12-12T05:47:10.160Z,28.80
2018-12-12T05:49:37.848Z,28.50
2018-12-12T05:52:05.578Z,28.87
2018-12-12T05:54:33.270Z,28.30
2018-12-12T05:57:00.957Z,30.90
2018-12-12T05:59:28.612Z,29.57
2018-12-12T06:01:56.323Z,29.60
2018-12-12T06:04:24.014Z,28.50
2018-12-12T06:06:51.686Z,30.33
2018-12-12T06:09:19.336Z,28.47
2018-12-12T06:11:47.052Z,28.87
2018-12-12T06:14:14.729Z,31.43
2018-12-12T06:16:42.537Z,28.83
2018-12-12T06:19:10.256Z,30.23
2018-12-12T06:21:37.968Z,30.40
2018-12-12T06:24:05.685Z,29.13
2018-12-12T06:26:37.360Z,29.80
2018-12-12T06:29:03.202Z,27.93
2018-12-12T06:31:30.866Z,28.40
2018-12-12T06:33:58.832Z,29.20
2018-12-12T06:36:26.543Z,28.80
2018-12-12T06:38:54.219Z,28.53
2018-12-12T06:41:21.967Z,29.53
2018-12-12T06:43:49.688Z,30.87
2018-12-12T06:46:17.420Z,30.80
2018-12-12T06:48:45.142Z,31.17
2018-12-12T06:51:12.800Z,37.80
2018-12-12T06:53:40.466Z,35.40
2018-12-12T06:56:08.246Z,33.07
2018-12-12T06:58:35.880Z,32.03
2018-12-12T07:01:03.564Z,33.07
2018-12-12T07:03:31.295Z,31.97
2018-12-12T07:05:58.998Z,32.50
2018-12-12T07:08:27.418Z,28.93
2018-12-12T07:10:55.116Z,30.67
2018-12-12T07:13:22.776Z,29.60
2018-12-12T07:15:50.442Z,31.03
2018-12-12T07:18:18.141Z,29.20
2018-12-12T07:20:45.838Z,29.47
2018-12-12T07:23:13.503Z,27.57
2018-12-12T07:25:41.204Z,31.60
2018-12-12T07:28:08.871Z,32.07
2018-12-12T07:30:36.503Z,26.70
2018-12-12T07:33:04.238Z,28.87
2018-12-12T07:35:31.891Z,28.17
2018-12-12T07:37:59.656Z,28.57
2018-12-12T07:40:27.300Z,27.70
2018-12-12T07:42:54.953Z,28.50
2018-12-12T07:45:22.595Z,27.50
2018-12-12T07:47:50.252Z,26.93
2018-12-12T07:50:17.906Z,27.30
2018-12-12T07:52:45.534Z,27.97
2018-12-12T07:55:13.244Z,28.93
2018-12-12T07:57:40.877Z,27.73
2018-12-12T08:00:08.936Z,27.17
2018-12-12T08:02:36.624Z,28.10
2018-12-12T08:05:04.634Z,26.10
2018-12-12T08:07:32.288Z,27.43
2018-12-12T08:10:00.000Z,25.13
2018-12-12T08:12:27.652Z,28.53
2018-12-12T08:14:55.320Z,27.03
2018-12-12T08:17:23.012Z,25.97
2018-12-12T08:19:50.802Z,27.53
2018-12-12T08:22:19.118Z,26.40
2018-12-12T08:24:46.834Z,28.93
2018-12-12T08:27:14.589Z,27.07
2018-12-12T08:29:42.286Z,28.77
2018-12-12T08:32:10.006Z,29.17
2018-12-12T08:34:37.668Z,28.67
2018-12-12T08:37:05.360Z,27.40
2018-12-12T08:39:33.086Z,27.57
2018-12-12T08:42:00.760Z,24.77
2018-12-12T08:44:28.448Z,27.03
2018-12-12T08:46:56.175Z,27.20
2018-12-12T08:49:23.846Z,28.47
2018-12-12T08:51:51.518Z,25.20
2018-12-12T08:54:19.218Z,26.70
2018-12-12T08:56:46.946Z,27.37
2018-12-12T08:59:14.547Z,27.47
2018-12-12T09:01:42.250Z,26.73
2018-12-12T09:04:09.870Z,25.07
2018-12-12T09:06:37.512Z,26.00
2018-12-12T09:09:06.939Z,27.00
2018-12-12T09:11:34.625Z,25.90
2018-12-12T09:14:02.381Z,24.67
2018-12-12T09:16:30.084Z,24.97
2018-12-12T09:18:57.745Z,24.63
2018-12-12T09:21:25.406Z,22.80
2018-12-12T09:23:53.089Z,24.10
2018-12-12T09:26:20.734Z,24.37
2018-12-12T09:28:48.390Z,23.90
2018-12-12T09:31:16.143Z,23.33
2018-12-12T09:33:43.799Z,21.40
2018-12-12T09:36:11.428Z,24.33
2018-12-12T09:38:39.140Z,24.00
2018-12-12T09:41:06.801Z,22.73
2018-12-12T09:43:34.457Z,23.53
2018-12-12T09:46:02.201Z,23.50
2018-12-12T09:48:29.838Z,22.37
2018-12-12T09:50:57.776Z,21.83
2018-12-12T09:53:25.497Z,22.57
2018-12-12T09:55:53.156Z,21.80
2018-12-12T09:58:20.846Z,22.70
2018-12-12T10:00:48.542Z,21.47
2018-12-12T10:03:16.216Z,22.37
2018-12-12T10:05:43.855Z,23.57
2018-12-12T10:08:11.615Z,24.63
2018-12-12T10:10:39.236Z,21.70
2018-12-12T10:13:06.848Z,22.30
2018-12-12T10:15:34.526Z,20.83
2018-12-12T10:18:02.204Z,22.53
2018-12-12T10:20:29.858Z,23.53
2018-12-12T10:22:57.565Z,24.67
2018-12-12T10:25:25.251Z,23.67
2018-12-12T10:27:52.920Z,23.47
2018-12-12T10:30:20.596Z,24.17
2018-12-12T10:32:48.253Z,23.50
2018-12-12T10:35:15.905Z,23.30
2018-12-12T10:37:43.709Z,22.97
2018-12-12T10:40:11.411Z,24.00
2018-12-12T10:42:39.076Z,23.30
2018-12-12T10:45:06.825Z,24.63
2018-12-12T10:47:34.499Z,24.07
2018-12-12T10:50:02.171Z,24.97
2018-12-12T10:52:29.864Z,22.80
2018-12-12T10:54:57.552Z,21.80
2018-12-12T10:57:25.305Z,21.83
2018-12-12T10:59:53.002Z,21.23
2018-12-12T11:02:26.366Z,21.83
2018-12-12T11:04:54.158Z,20.73
2018-12-12T11:07:21.876Z,20.53
2018-12-12T11:09:49.889Z,19.53
2018-12-12T11:12:17.773Z,21.13
2018-12-12T11:14:45.455Z,20.50
2018-12-12T11:17:13.134Z,18.90
2018-12-12T11:19:40.799Z,19.50
2018-12-12T11:22:08.452Z,19.27
2018-12-12T11:24:36.072Z,19.87
2018-12-12T11:27:03.770Z,19.33
2018-12-12T11:29:31.429Z,21.80
2018-12-12T11:31:59.109Z,22.33
2018-12-12T11:34:26.815Z,20.77
2018-12-12T11:36:54.474Z,20.77
2018-12-12T11:39:22.281Z,21.40
2018-12-12T11:41:50.464Z,20.77
2018-12-12T11:44:18.265Z,21.20
2018-12-12T11:46:45.968Z,22.27
2018-12-12T11:49:13.661Z,21.53
2018-12-12T11:51:41.333Z,21.77
2018-12-12T11:54:08.971Z,20.03
2018-12-12T11:56:36.679Z,19.57
2018-12-12T11:59:04.335Z,19.50
2018-12-12T12:01:32.018Z,20.40
2018-12-12T12:03:59.717Z,22.80
2018-12-12T12:06:27.375Z,19.77
2018-12-12T12:08:55.037Z,18.23
2018-12-12T12:11:22.721Z,16.87
2018-12-12T12:13:50.419Z,19.60
2018-12-12T12:16:18.115Z,17.33
2018-12-12T12:18:45.825Z,16.50
2018-12-12T12:21:13.543Z,14.53
2018-12-12T12:23:41.335Z,14.53
2018-12-12T12:26:09.847Z,14.13
2018-12-12T12:28:37.536Z,14.57
2018-12-12T12:31:05.163Z,13.20
2018-12-12T12:33:32.935Z,13.93
2018-12-12T12:36:00.596Z,15.27
2018-12-12T12:38:28.227Z,14.30
2018-12-12T12:40:55.969Z,14.37
2018-12-12T12:43:23.616Z,16.57
2018-12-12T12:45:51.251Z,14.73
2018-12-12T12:48:18.987Z,12.83
2018-12-12T12:50:46.636Z,12.23
2018-12-12T12:53:14.278Z,12.37
2018-12-12T12:55:41.935Z,15.30
2018-12-12T12:58:09.625Z,16.17
2018-12-12T13:00:37.253Z,13.83
2018-12-12T13:03:04.901Z,11.70
2018-12-12T13:05:32.545Z,11.70
2018-12-12T13:08:00.335Z,12.23
2018-12-12T13:10:28.247Z,11.03
2018-12-12T13:12:56.208Z,11.30
2018-12-12T13:15:24.086Z,12.70
2018-12-12T13:17:51.789Z,10.30
2018-12-12T13:20:19.437Z,10.27
2018-12-12T13:22:47.096Z,10.77
2018-12-12T13:25:14.775Z,12.20
2018-12-12T13:27:42.459Z,12.60
2018-12-12T13:30:10.128Z,11.90
2018-12-12T13:32:37.866Z,11.67
2018-12-12T13:35:05.707Z,11.83
2018-12-12T13:37:33.334Z,13.33
2018-12-12T13:40:01.020Z,12.87
2018-12-12T13:42:28.861Z,12.73
2018-12-12T13:44:56.542Z,12.10
2018-12-12T13:47:24.306Z,12.40
2018-12-12T13:49:52.057Z,13.90
2018-12-12T13:52:19.738Z,13.37
2018-12-12T13:54:47.481Z,13.20
2018-12-12T13:57:15.156Z,12.63
2018-12-12T13:59:42.832Z,13.93
2018-12-12T14:02:10.532Z,11.83
2018-12-12T14:04:38.212Z,12.17
2018-12-12T14:07:05.922Z,12.10
2018-12-12T14:09:33.629Z,12.63
2018-12-12T14:12:01.348Z,14.33
2018-12-12T14:14:29.080Z,12.87
2018-12-12T14:16:56.837Z,13.70
2018-12-12T14:19:24.568Z,15.77
2018-12-12T14:21:52.272Z,14.97
2018-12-12T14:24:19.964Z,14.73
2018-12-12T14:26:47.700Z,16.40
2018-12-12T14:29:15.398Z,18.43
2018-12-12T14:31:43.155Z,19.43
2018-12-12T14:34:10.816Z,22.67
2018-12-12T14:36:38.494Z,21.63
2018-12-12T14:39:07.259Z,17.93
2018-12-12T14:41:35.007Z,19.20
2018-12-12T14:44:02.806Z,18.27
2018-12-12T14:46:30.601Z,16.20
2018-12-12T14:48:58.296Z,15.17
2018-12-12T14:51:26.013Z,18.80
2018-12-12T14:53:53.676Z,17.90
2018-12-12T14:56:21.386Z,20.03
2018-12-12T14:58:49.139Z,20.17
2018-12-12T15:01:16.848Z,18.93
2018-12-12T15:03:45.682Z,22.73
2018-12-12T15:06:13.701Z,21.60
2018-12-12T15:08:41.379Z,30.17
2018-12-12T15:11:09.102Z,29.83
2018-12-12T15:13:36.734Z,24.93
2018-12-12T15:16:07.898Z,22.83
2018-12-12T15:18:35.748Z,22.47
2018-12-12T15:21:03.457Z,25.73
2018-12-12T15:23:31.202Z,24.30
2018-12-12T15:25:58.862Z,24.43
2018-12-12T15:28:26.528Z,25.33
2018-12-12T15:30:54.266Z,26.20
2018-12-12T15:33:21.946Z,28.17
2018-12-12T15:35:56.302Z,28.00
2018-12-12T15:38:23.966Z,31.30
2018-12-12T15:40:51.787Z,31.67
2018-12-12T15:43:19.522Z,34.77
2018-12-12T15:45:47.438Z,34.43
2018-12-12T16:01:39.928Z,49.23
2018-12-12T16:04:07.582Z,36.50
2018-12-12T16:06:35.237Z,36.27
2018-12-12T16:09:03.890Z,35.43
2018-12-12T16:11:31.675Z,28.70
2018-12-12T16:14:00.271Z,29.77
2018-12-12T16:16:28.027Z,25.97
2018-12-12T16:18:56.365Z,23.13
2018-12-12T16:21:24.075Z,26.47
2018-12-12T16:23:51.778Z,30.07
2018-12-12T16:26:19.530Z,27.80
2018-12-12T16:28:47.238Z,27.93
2018-12-12T16:31:14.998Z,25.63
2018-12-12T16:33:42.842Z,32.50
2018-12-12T16:36:10.707Z,47.90
2018-12-12T16:38:38.450Z,48.90
2018-12-12T16:41:06.188Z,44.70
2018-12-12T16:43:33.896Z,51.00
2018-12-12T16:46:01.755Z,24.00
2018-12-12T16:48:29.472Z,17.87
2018-12-12T16:50:57.206Z,18.33
2018-12-12T16:53:24.930Z,19.00
2018-12-12T16:55:52.600Z,14.77
2018-12-12T16:58:20.326Z,16.97
2018-12-12T17:00:48.147Z,17.23
2018-12-12T17:03:15.854Z,15.53
2018-12-12T17:05:43.538Z,13.87
2018-12-12T17:08:11.288Z,17.33
2018-12-12T17:10:38.985Z,14.93
2018-12-12T17:13:06.698Z,14.47
2018-12-12T17:15:34.439Z,12.10
2018-12-12T17:18:02.186Z,16.03
2018-12-12T17:20:29.936Z,17.23
2018-12-12T17:22:57.666Z,15.70
2018-12-12T17:25:25.429Z,14.83
2018-12-12T17:27:53.134Z,14.47
2018-12-12T17:30:22.378Z,15.23
2018-12-12T17:32:54.064Z,14.90
2018-12-12T17:35:23.559Z,13.60
2018-12-12T17:37:52.058Z,15.10
2018-12-12T17:40:19.780Z,18.73
2018-12-12T17:42:47.528Z,18.53
2018-12-12T17:45:15.223Z,19.73
2018-12-12T17:47:42.998Z,19.87
2018-12-12T17:50:11.882Z,18.70
2018-12-12T17:52:39.606Z,19.40
2018-12-12T17:55:07.477Z,21.13
2018-12-12T17:57:35.224Z,19.07
2018-12-12T18:00:03.827Z,18.43
2018-12-12T18:02:31.573Z,15.37
2018-12-12T18:04:59.327Z,15.23
2018-12-12T18:07:36.579Z,15.87
2018-12-12T18:14:47.510Z,16.13
2018-12-12T18:17:15.329Z,16.17
2018-12-12T18:19:43.029Z,15.20
2018-12-12T18:22:10.726Z,14.70
2018-12-12T18:24:38.459Z,14.47
2018-12-12T18:27:06.987Z,17.83
2018-12-12T18:29:34.710Z,15.60
2018-12-12T18:32:03.195Z,15.90
2018-12-12T18:34:30.938Z,14.63
2018-12-12T18:36:58.794Z,12.93
2018-12-12T18:39:26.839Z,13.87
2018-12-12T18:41:54.655Z,14.20
2018-12-12T18:44:22.411Z,14.43
2018-12-12T18:46:50.330Z,14.60
2018-12-12T18:49:18.099Z,12.43
2018-12-12T18:51:46.042Z,14.03
2018-12-12T18:54:13.786Z,14.80
2018-12-12T18:56:41.558Z,14.23
2018-12-12T18:59:09.273Z,14.63
2018-12-12T19:01:37.029Z,16.20
2018-12-12T19:04:04.742Z,14.37
2018-12-12T19:06:32.527Z,13.70
2018-12-12T19:09:00.276Z,13.73
2018-12-12T19:11:28.003Z,14.60
2018-12-12T19:13:55.731Z,16.30
2018-12-12T19:16:23.448Z,16.27
2018-12-12T19:18:51.211Z,16.47
2018-12-12T19:21:19.039Z,16.03
2018-12-12T19:23:47.042Z,16.13
2018-12-12T19:26:14.788Z,18.67
2018-12-12T19:28:42.579Z,18.53
2018-12-12T19:31:10.341Z,18.33
2018-12-12T19:33:38.074Z,19.10
2018-12-12T19:36:05.796Z,17.90
2018-12-12T19:38:34.616Z,19.17
2018-12-12T19:41:02.445Z,19.77
2018-12-12T19:43:30.200Z,20.47
2018-12-12T19:45:57.959Z,20.00
2018-12-12T19:48:25.719Z,18.93
2018-12-12T19:50:53.587Z,18.10
2018-12-12T19:53:21.320Z,18.87
2018-12-12T19:55:49.064Z,18.57
2018-12-12T19:58:16.792Z,18.17
2018-12-12T20:00:44.591Z,18.20
2018-12-12T20:03:12.415Z,18.47
2018-12-12T20:05:41.429Z,18.70
2018-12-12T20:08:09.418Z,18.40
2018-12-12T20:10:37.178Z,20.97
2018-12-12T20:13:04.887Z,18.03
2018-12-12T20:15:38.557Z,18.13
2018-12-12T20:18:06.358Z,17.70
2018-12-12T20:20:34.173Z,16.77
2018-12-12T20:23:01.991Z,17.90
2018-12-12T20:25:29.734Z,17.37
2018-12-12T20:27:59.816Z,18.07
2018-12-12T20:30:27.670Z,17.07
2018-12-12T20:32:55.514Z,17.13
2018-12-12T20:35:28.553Z,15.60
2018-12-12T20:37:56.399Z,15.97
2018-12-12T20:40:24.171Z,16.20
2018-12-12T20:42:52.104Z,17.33
2018-12-12T20:45:19.888Z,18.17
2018-12-12T20:47:47.799Z,18.33
2018-12-12T20:50:15.653Z,16.83
2018-12-12T20:52:43.380Z,17.73
2018-12-12T20:55:11.142Z,17.77
2018-12-12T20:57:39.944Z,17.20
2018-12-12T21:00:07.875Z,19.27
2018-12-12T21:02:35.613Z,19.20
2018-12-12T21:05:03.502Z,17.07
2018-12-12T21:07:31.237Z,18.40
2018-12-12T21:10:01.626Z,22.03
2018-12-12T21:12:29.430Z,20.33
2018-12-12T21:14:57.289Z,19.03
2018-12-12T21:17:25.125Z,19.37
2018-12-12T21:19:52.858Z,17.97
2018-12-12T21:22:20.568Z,18.63
2018-12-12T21:24:48.322Z,17.70
2018-12-12T21:27:16.068Z,17.40
2018-12-12T21:29:43.770Z,18.07
2018-12-12T21:32:11.515Z,17.53
2018-12-12T21:34:39.290Z,18.23
2018-12-12T21:37:07.660Z,17.97
2018-12-12T21:39:35.432Z,23.93
2018-12-12T21:42:03.306Z,19.43
2018-12-12T21:47:05.610Z,21.03
2018-12-12T21:49:33.483Z,24.50
2018-12-12T21:52:01.232Z,21.40
2018-12-12T21:54:29.119Z,21.00
2018-12-12T21:56:56.816Z,16.53
2018-12-12T21:59:24.669Z,17.13
2018-12-12T22:01:52.407Z,16.03
2018-12-12T22:04:20.170Z,16.60
2018-12-12T22:06:47.993Z,17.03
2018-12-12T22:09:15.771Z,16.33
2018-12-12T22:11:43.582Z,17.40
2018-12-12T22:14:11.338Z,16.70
2018-12-12T22:16:39.159Z,17.07
2018-12-12T22:19:06.995Z,16.67
2018-12-12T22:21:34.763Z,16.00
2018-12-12T22:24:02.566Z,16.67
2018-12-12T22:26:30.332Z,15.03
2018-12-12T22:28:58.059Z,16.67
2018-12-12T22:31:25.881Z,16.73
2018-12-12T22:33:53.663Z,17.60
2018-12-12T22:36:21.430Z,17.53
2018-12-12T22:38:49.234Z,18.33
2018-12-12T22:41:17.007Z,16.63
2018-12-12T22:43:44.765Z,16.17
2018-12-12T22:46:12.554Z,18.50
2018-12-12T22:48:40.486Z,17.60
2018-12-12T22:51:08.279Z,16.47
2018-12-12T22:53:36.033Z,17.50
2018-12-12T22:56:03.818Z,16.33
2018-12-12T22:58:31.587Z,17.87
2018-12-12T23:01:07.035Z,18.63
2018-12-12T23:03:35.451Z,16.63
2018-12-12T23:06:03.225Z,15.97
2018-12-12T23:08:31.059Z,16.40
2018-12-12T23:10:58.777Z,16.57
2018-12-12T23:13:26.827Z,15.30
2018-12-12T23:15:54.568Z,16.80
2018-12-12T23:18:22.326Z,16.00
2018-12-12T23:20:50.084Z,14.87
2018-12-12T23:23:17.833Z,14.97
2018-12-12T23:25:45.568Z,15.70
2018-12-12T23:28:13.291Z,15.30
2018-12-12T23:30:41.254Z,14.10
2018-12-12T23:33:09.011Z,15.17
2018-12-12T23:35:36.722Z,14.50
2018-12-12T23:38:04.464Z,16.23
2018-12-12T23:40:32.216Z,14.53
2018-12-12T23:43:08.075Z,13.93
2018-12-12T23:45:35.861Z,14.77
2018-12-12T23:48:03.752Z,14.50
2018-12-12T23:50:31.611Z,14.50
2018-12-12T23:52:59.374Z,14.57
2018-12-12T23:55:27.160Z,13.80
2018-12-12T23:57:54.904Z,13.90
